sensor_id;sensor_type;location;lat;lon;timestamp;temperature;humidity
25983;DHT22;13773;48.868;10.730;2023-04-15T00:00:38;3.50;99.90
25983;DHT22;13773;48.868;10.730;2023-04-15T00:03:04;3.50;99.90
25983;DHT22;13773;48.868;10.730;2023-04-15T00:05:30;3.70;99.90
25983;DHT22;13773;48.868;10.730;2023-04-15T00:07:57;3.70;99.90
25983;DHT22;13773;48.868;10.730;2023-04-15T00:10:24;3.80;99.90
25983;DHT22;13773;48.868;10.730;2023-04-15T00:12:50;3.70;99.90
25983;DHT22;13773;48.868;10.730;2023-04-15T00:15:16;3.70;99.90
25983;DHT22;13773;48.868;10.730;2023-04-15T00:17:42;3.60;99.90
25983;DHT22;13773;48.868;10.730;2023-04-15T00:20:08;3.60;99.90
25983;DHT22;13773;48.868;10.730;2023-04-15T00:22:34;3.50;99.90
25983;DHT22;13773;48.868;10.730;2023-04-15T00:25:01;3.50;99.90
25983;DHT22;13773;48.868;10.730;2023-04-15T00:27:26;3.50;99.90
25983;DHT22;13773;48.868;10.730;2023-04-15T00:29:52;3.50;99.90
25983;DHT22;13773;48.868;10.730;2023-04-15T00:32:18;3.50;99.90
25983;DHT22;13773;48.868;10.730;2023-04-15T00:34:44;3.50;99.90
25983;DHT22;13773;48.868;10.730;2023-04-15T00:37:10;3.50;99.90
25983;DHT22;13773;48.868;10.730;2023-04-15T00:39:37;3.50;99.90
25983;DHT22;13773;48.868;10.730;2023-04-15T00:42:05;3.50;99.90
25983;DHT22;13773;48.868;10.730;2023-04-15T00:44:31;3.50;99.90
25983;DHT22;13773;48.868;10.730;2023-04-15T00:46:59;3.50;99.90
25983;DHT22;13773;48.868;10.730;2023-04-15T00:49:25;3.50;99.90
25983;DHT22;13773;48.868;10.730;2023-04-15T00:51:51;3.40;99.90
25983;DHT22;13773;48.868;10.730;2023-04-15T00:54:17;3.50;99.90
25983;DHT22;13773;48.868;10.730;2023-04-15T00:56:43;3.50;99.90
25983;DHT22;13773;48.868;10.730;2023-04-15T00:59:08;3.50;99.90
25983;DHT22;13773;48.868;10.730;2023-04-15T01:01:35;3.50;99.90
25983;DHT22;13773;48.868;10.730;2023-04-15T01:04:01;3.50;99.90
25983;DHT22;13773;48.868;10.730;2023-04-15T01:06:28;3.50;99.90
25983;DHT22;13773;48.868;10.730;2023-04-15T01:08:54;3.40;99.90
25983;DHT22;13773;48.868;10.730;2023-04-15T01:11:20;3.50;99.90
25983;DHT22;13773;48.868;10.730;2023-04-15T01:13:47;3.40;99.90
25983;DHT22;13773;48.868;10.730;2023-04-15T01:16:13;3.50;99.90
25983;DHT22;13773;48.868;10.730;2023-04-15T01:18:39;3.40;99.90
25983;DHT22;13773;48.868;10.730;2023-04-15T01:21:05;3.50;99.90
25983;DHT22;13773;48.868;10.730;2023-04-15T01:23:34;3.40;99.90
25983;DHT22;13773;48.868;10.730;2023-04-15T01:26:01;3.40;99.90
25983;DHT22;13773;48.868;10.730;2023-04-15T01:28:28;3.40;99.90
25983;DHT22;13773;48.868;10.730;2023-04-15T01:31:12;3.40;99.90
25983;DHT22;13773;48.868;10.730;2023-04-15T01:33:39;3.40;99.90
25983;DHT22;13773;48.868;10.730;2023-04-15T01:36:06;3.40;99.90
25983;DHT22;13773;48.868;10.730;2023-04-15T01:38:33;3.30;99.90
25983;DHT22;13773;48.868;10.730;2023-04-15T01:40:59;3.30;99.90
25983;DHT22;13773;48.868;10.730;2023-04-15T01:43:25;3.30;99.90
25983;DHT22;13773;48.868;10.730;2023-04-15T01:45:51;3.30;99.90
25983;DHT22;13773;48.868;10.730;2023-04-15T01:48:17;3.30;99.90
25983;DHT22;13773;48.868;10.730;2023-04-15T01:50:43;3.20;99.90
25983;DHT22;13773;48.868;10.730;2023-04-15T01:53:09;3.20;99.90
25983;DHT22;13773;48.868;10.730;2023-04-15T01:55:35;3.10;99.90
25983;DHT22;13773;48.868;10.730;2023-04-15T01:58:01;3.20;99.90
25983;DHT22;13773;48.868;10.730;2023-04-15T02:00:27;3.20;99.90
25983;DHT22;13773;48.868;10.730;2023-04-15T02:02:54;3.20;99.90
25983;DHT22;13773;48.868;10.730;2023-04-15T02:05:20;3.20;99.90
25983;DHT22;13773;48.868;10.730;2023-04-15T02:07:45;3.20;99.90
25983;DHT22;13773;48.868;10.730;2023-04-15T02:10:11;3.20;99.90
25983;DHT22;13773;48.868;10.730;2023-04-15T02:12:41;3.10;99.90
25983;DHT22;13773;48.868;10.730;2023-04-15T02:15:07;3.20;99.90
25983;DHT22;13773;48.868;10.730;2023-04-15T02:17:34;3.20;99.90
25983;DHT22;13773;48.868;10.730;2023-04-15T02:20:00;3.30;99.90
25983;DHT22;13773;48.868;10.730;2023-04-15T02:22:26;3.30;99.90
25983;DHT22;13773;48.868;10.730;2023-04-15T02:24:52;3.30;99.90
25983;DHT22;13773;48.868;10.730;2023-04-15T02:27:18;3.30;99.90
25983;DHT22;13773;48.868;10.730;2023-04-15T02:29:44;3.30;99.90
25983;DHT22;13773;48.868;10.730;2023-04-15T02:32:11;3.30;99.90
25983;DHT22;13773;48.868;10.730;2023-04-15T02:34:40;3.30;99.90
25983;DHT22;13773;48.868;10.730;2023-04-15T02:37:11;3.20;99.90
25983;DHT22;13773;48.868;10.730;2023-04-15T02:39:37;3.20;99.90
25983;DHT22;13773;48.868;10.730;2023-04-15T02:42:04;3.20;99.90
25983;DHT22;13773;48.868;10.730;2023-04-15T02:44:30;3.10;99.90
25983;DHT22;13773;48.868;10.730;2023-04-15T02:46:57;3.10;99.90
25983;DHT22;13773;48.868;10.730;2023-04-15T02:49:24;3.10;99.90
25983;DHT22;13773;48.868;10.730;2023-04-15T02:51:50;3.00;99.90
25983;DHT22;13773;48.868;10.730;2023-04-15T02:54:20;3.00;99.90
25983;DHT22;13773;48.868;10.730;2023-04-15T02:56:47;2.90;99.90
25983;DHT22;13773;48.868;10.730;2023-04-15T02:59:13;2.90;99.90
25983;DHT22;13773;48.868;10.730;2023-04-15T03:01:39;3.00;99.90
25983;DHT22;13773;48.868;10.730;2023-04-15T03:04:04;2.90;99.90
25983;DHT22;13773;48.868;10.730;2023-04-15T03:06:32;2.90;99.90
25983;DHT22;13773;48.868;10.730;2023-04-15T03:08:57;2.80;99.90
25983;DHT22;13773;48.868;10.730;2023-04-15T03:11:24;2.80;99.90
25983;DHT22;13773;48.868;10.730;2023-04-15T03:13:51;2.80;99.90
25983;DHT22;13773;48.868;10.730;2023-04-15T03:16:17;2.90;99.90
25983;DHT22;13773;48.868;10.730;2023-04-15T03:18:43;2.80;99.90
25983;DHT22;13773;48.868;10.730;2023-04-15T03:21:08;2.90;99.90
25983;DHT22;13773;48.868;10.730;2023-04-15T03:23:34;3.00;99.90
25983;DHT22;13773;48.868;10.730;2023-04-15T03:26:04;3.00;99.90
25983;DHT22;13773;48.868;10.730;2023-04-15T03:28:30;2.90;99.90
25983;DHT22;13773;48.868;10.730;2023-04-15T03:30:55;2.90;99.90
25983;DHT22;13773;48.868;10.730;2023-04-15T03:33:21;2.90;99.90
25983;DHT22;13773;48.868;10.730;2023-04-15T03:35:47;3.00;99.90
25983;DHT22;13773;48.868;10.730;2023-04-15T03:38:12;3.00;99.90
25983;DHT22;13773;48.868;10.730;2023-04-15T03:40:40;2.90;99.90
25983;DHT22;13773;48.868;10.730;2023-04-15T03:43:06;2.90;99.90
25983;DHT22;13773;48.868;10.730;2023-04-15T03:45:32;2.90;99.90
25983;DHT22;13773;48.868;10.730;2023-04-15T03:47:57;2.80;99.90
25983;DHT22;13773;48.868;10.730;2023-04-15T03:50:23;2.80;99.90
25983;DHT22;13773;48.868;10.730;2023-04-15T03:52:49;2.80;99.90
25983;DHT22;13773;48.868;10.730;2023-04-15T03:55:15;2.80;99.90
25983;DHT22;13773;48.868;10.730;2023-04-15T03:57:41;2.80;99.90
25983;DHT22;13773;48.868;10.730;2023-04-15T04:00:07;2.80;99.90
25983;DHT22;13773;48.868;10.730;2023-04-15T04:02:35;2.80;99.90
25983;DHT22;13773;48.868;10.730;2023-04-15T04:05:00;2.80;99.90
25983;DHT22;13773;48.868;10.730;2023-04-15T04:07:26;2.70;99.90
25983;DHT22;13773;48.868;10.730;2023-04-15T04:09:52;2.70;99.90
25983;DHT22;13773;48.868;10.730;2023-04-15T04:12:17;2.70;99.90
25983;DHT22;13773;48.868;10.730;2023-04-15T04:14:43;2.80;99.90
25983;DHT22;13773;48.868;10.730;2023-04-15T04:17:09;2.70;99.90
25983;DHT22;13773;48.868;10.730;2023-04-15T04:19:35;2.70;99.90
25983;DHT22;13773;48.868;10.730;2023-04-15T04:22:00;2.70;99.90
25983;DHT22;13773;48.868;10.730;2023-04-15T04:24:26;2.70;99.90
25983;DHT22;13773;48.868;10.730;2023-04-15T04:26:52;2.60;99.90
25983;DHT22;13773;48.868;10.730;2023-04-15T04:29:18;2.60;99.90
25983;DHT22;13773;48.868;10.730;2023-04-15T04:31:43;2.60;99.90
25983;DHT22;13773;48.868;10.730;2023-04-15T04:34:09;2.60;99.90
25983;DHT22;13773;48.868;10.730;2023-04-15T04:36:35;2.60;99.90
25983;DHT22;13773;48.868;10.730;2023-04-15T04:39:01;2.60;99.90
25983;DHT22;13773;48.868;10.730;2023-04-15T04:41:26;2.50;99.90
25983;DHT22;13773;48.868;10.730;2023-04-15T04:43:52;2.50;99.90
25983;DHT22;13773;48.868;10.730;2023-04-15T04:46:18;2.50;99.90
25983;DHT22;13773;48.868;10.730;2023-04-15T04:48:44;2.50;99.90
25983;DHT22;13773;48.868;10.730;2023-04-15T04:51:10;2.50;99.90
25983;DHT22;13773;48.868;10.730;2023-04-15T04:53:36;2.60;99.90
25983;DHT22;13773;48.868;10.730;2023-04-15T04:56:02;2.60;99.90
25983;DHT22;13773;48.868;10.730;2023-04-15T04:58:28;2.60;99.90
25983;DHT22;13773;48.868;10.730;2023-04-15T05:00:54;2.70;99.90
25983;DHT22;13773;48.868;10.730;2023-04-15T05:03:20;2.70;99.90
25983;DHT22;13773;48.868;10.730;2023-04-15T05:05:46;2.80;99.90
25983;DHT22;13773;48.868;10.730;2023-04-15T05:08:14;2.90;99.90
25983;DHT22;13773;48.868;10.730;2023-04-15T05:10:39;3.00;99.90
25983;DHT22;13773;48.868;10.730;2023-04-15T05:13:05;3.10;99.90
25983;DHT22;13773;48.868;10.730;2023-04-15T05:15:31;3.20;99.90
25983;DHT22;13773;48.868;10.730;2023-04-15T05:17:57;3.20;99.90
25983;DHT22;13773;48.868;10.730;2023-04-15T05:20:23;3.30;99.90
25983;DHT22;13773;48.868;10.730;2023-04-15T05:22:49;3.40;99.90
25983;DHT22;13773;48.868;10.730;2023-04-15T05:25:14;3.50;99.90
25983;DHT22;13773;48.868;10.730;2023-04-15T05:27:40;3.60;99.90
25983;DHT22;13773;48.868;10.730;2023-04-15T05:30:07;3.80;99.90
25983;DHT22;13773;48.868;10.730;2023-04-15T05:32:33;3.80;99.90
25983;DHT22;13773;48.868;10.730;2023-04-15T05:34:59;3.70;99.90
25983;DHT22;13773;48.868;10.730;2023-04-15T05:37:24;3.80;99.90
25983;DHT22;13773;48.868;10.730;2023-04-15T05:39:50;3.90;99.90
25983;DHT22;13773;48.868;10.730;2023-04-15T05:42:16;4.00;99.90
25983;DHT22;13773;48.868;10.730;2023-04-15T05:44:42;4.10;99.90
25983;DHT22;13773;48.868;10.730;2023-04-15T05:47:07;4.20;99.90
25983;DHT22;13773;48.868;10.730;2023-04-15T05:49:34;4.30;99.90
25983;DHT22;13773;48.868;10.730;2023-04-15T05:52:00;4.40;99.90
25983;DHT22;13773;48.868;10.730;2023-04-15T05:54:26;4.50;99.90
25983;DHT22;13773;48.868;10.730;2023-04-15T05:56:52;4.60;99.90
25983;DHT22;13773;48.868;10.730;2023-04-15T05:59:18;4.60;99.90
25983;DHT22;13773;48.868;10.730;2023-04-15T06:01:44;4.70;99.90
25983;DHT22;13773;48.868;10.730;2023-04-15T06:04:10;4.60;99.90
25983;DHT22;13773;48.868;10.730;2023-04-15T06:06:36;4.70;99.90
25983;DHT22;13773;48.868;10.730;2023-04-15T06:09:03;4.80;99.90
25983;DHT22;13773;48.868;10.730;2023-04-15T06:11:28;4.80;99.90
25983;DHT22;13773;48.868;10.730;2023-04-15T06:13:55;4.90;99.90
25983;DHT22;13773;48.868;10.730;2023-04-15T06:16:21;5.00;99.90
25983;DHT22;13773;48.868;10.730;2023-04-15T06:18:47;5.10;99.90
25983;DHT22;13773;48.868;10.730;2023-04-15T06:21:14;5.10;99.90
25983;DHT22;13773;48.868;10.730;2023-04-15T06:23:40;5.30;99.90
25983;DHT22;13773;48.868;10.730;2023-04-15T06:26:06;5.40;99.90
25983;DHT22;13773;48.868;10.730;2023-04-15T06:28:32;5.40;99.90
25983;DHT22;13773;48.868;10.730;2023-04-15T06:30:58;5.50;99.90
25983;DHT22;13773;48.868;10.730;2023-04-15T06:33:23;5.60;99.90
25983;DHT22;13773;48.868;10.730;2023-04-15T06:35:49;5.70;99.90
25983;DHT22;13773;48.868;10.730;2023-04-15T06:38:15;5.70;99.90
25983;DHT22;13773;48.868;10.730;2023-04-15T06:40:41;5.70;99.90
25983;DHT22;13773;48.868;10.730;2023-04-15T06:43:06;5.80;99.90
25983;DHT22;13773;48.868;10.730;2023-04-15T06:45:33;5.90;99.90
25983;DHT22;13773;48.868;10.730;2023-04-15T06:47:59;6.10;99.90
25983;DHT22;13773;48.868;10.730;2023-04-15T06:50:25;6.10;99.90
25983;DHT22;13773;48.868;10.730;2023-04-15T06:52:54;6.20;99.90
25983;DHT22;13773;48.868;10.730;2023-04-15T06:55:20;6.20;99.90
25983;DHT22;13773;48.868;10.730;2023-04-15T06:57:46;6.30;99.90
25983;DHT22;13773;48.868;10.730;2023-04-15T07:00:12;6.40;99.90
25983;DHT22;13773;48.868;10.730;2023-04-15T07:02:38;6.40;99.90
25983;DHT22;13773;48.868;10.730;2023-04-15T07:05:06;6.40;99.90
25983;DHT22;13773;48.868;10.730;2023-04-15T07:07:33;6.60;99.90
25983;DHT22;13773;48.868;10.730;2023-04-15T07:10:00;6.70;99.90
25983;DHT22;13773;48.868;10.730;2023-04-15T07:12:27;6.90;99.90
25983;DHT22;13773;48.868;10.730;2023-04-15T07:14:53;7.00;99.90
25983;DHT22;13773;48.868;10.730;2023-04-15T07:17:19;7.10;99.90
25983;DHT22;13773;48.868;10.730;2023-04-15T07:19:45;7.00;99.90
25983;DHT22;13773;48.868;10.730;2023-04-15T07:22:10;7.20;99.90
25983;DHT22;13773;48.868;10.730;2023-04-15T07:24:36;7.20;99.90
25983;DHT22;13773;48.868;10.730;2023-04-15T07:27:02;7.40;99.90
25983;DHT22;13773;48.868;10.730;2023-04-15T07:29:28;7.50;99.90
25983;DHT22;13773;48.868;10.730;2023-04-15T07:31:54;7.40;99.90
25983;DHT22;13773;48.868;10.730;2023-04-15T07:34:21;7.30;99.90
25983;DHT22;13773;48.868;10.730;2023-04-15T07:36:47;7.20;99.90
25983;DHT22;13773;48.868;10.730;2023-04-15T07:39:15;7.20;99.90
25983;DHT22;13773;48.868;10.730;2023-04-15T07:41:41;7.50;99.90
25983;DHT22;13773;48.868;10.730;2023-04-15T07:44:06;7.60;99.90
25983;DHT22;13773;48.868;10.730;2023-04-15T07:46:32;7.70;99.90
25983;DHT22;13773;48.868;10.730;2023-04-15T07:48:58;7.70;99.90
25983;DHT22;13773;48.868;10.730;2023-04-15T07:51:23;7.50;99.90
25983;DHT22;13773;48.868;10.730;2023-04-15T07:53:50;7.70;99.90
25983;DHT22;13773;48.868;10.730;2023-04-15T07:56:15;7.90;99.90
25983;DHT22;13773;48.868;10.730;2023-04-15T07:58:42;8.20;99.90
25983;DHT22;13773;48.868;10.730;2023-04-15T08:01:08;8.30;99.90
25983;DHT22;13773;48.868;10.730;2023-04-15T08:03:33;8.40;99.90
25983;DHT22;13773;48.868;10.730;2023-04-15T08:05:59;8.60;99.90
25983;DHT22;13773;48.868;10.730;2023-04-15T08:08:25;8.80;99.90
25983;DHT22;13773;48.868;10.730;2023-04-15T08:10:51;8.80;99.90
25983;DHT22;13773;48.868;10.730;2023-04-15T08:13:17;8.90;99.90
25983;DHT22;13773;48.868;10.730;2023-04-15T08:15:43;8.90;99.90
25983;DHT22;13773;48.868;10.730;2023-04-15T08:18:09;9.00;99.90
25983;DHT22;13773;48.868;10.730;2023-04-15T08:20:35;9.20;99.90
25983;DHT22;13773;48.868;10.730;2023-04-15T08:23:02;9.40;99.90
25983;DHT22;13773;48.868;10.730;2023-04-15T08:25:27;9.40;99.90
25983;DHT22;13773;48.868;10.730;2023-04-15T08:27:56;9.40;99.90
25983;DHT22;13773;48.868;10.730;2023-04-15T08:30:22;9.50;99.90
25983;DHT22;13773;48.868;10.730;2023-04-15T08:32:49;9.60;99.90
25983;DHT22;13773;48.868;10.730;2023-04-15T08:35:15;10.00;99.90
25983;DHT22;13773;48.868;10.730;2023-04-15T08:37:41;10.30;99.90
25983;DHT22;13773;48.868;10.730;2023-04-15T08:40:07;10.20;99.90
25983;DHT22;13773;48.868;10.730;2023-04-15T08:42:43;9.90;99.90
25983;DHT22;13773;48.868;10.730;2023-04-15T08:45:11;10.20;99.90
25983;DHT22;13773;48.868;10.730;2023-04-15T08:47:37;10.10;99.90
25983;DHT22;13773;48.868;10.730;2023-04-15T08:50:07;10.20;99.90
25983;DHT22;13773;48.868;10.730;2023-04-15T08:52:33;10.60;99.90
25983;DHT22;13773;48.868;10.730;2023-04-15T08:55:01;10.40;99.90
25983;DHT22;13773;48.868;10.730;2023-04-15T08:57:27;10.40;99.90
25983;DHT22;13773;48.868;10.730;2023-04-15T08:59:55;10.30;99.90
25983;DHT22;13773;48.868;10.730;2023-04-15T09:02:22;10.30;99.90
25983;DHT22;13773;48.868;10.730;2023-04-15T09:04:48;10.40;99.90
25983;DHT22;13773;48.868;10.730;2023-04-15T09:07:14;10.30;99.90
25983;DHT22;13773;48.868;10.730;2023-04-15T09:09:40;10.30;99.90
25983;DHT22;13773;48.868;10.730;2023-04-15T09:12:07;10.30;99.90
25983;DHT22;13773;48.868;10.730;2023-04-15T09:14:33;10.20;99.90
25983;DHT22;13773;48.868;10.730;2023-04-15T09:17:01;10.20;99.90
25983;DHT22;13773;48.868;10.730;2023-04-15T09:19:28;10.50;99.90
25983;DHT22;13773;48.868;10.730;2023-04-15T09:21:55;10.30;99.90
25983;DHT22;13773;48.868;10.730;2023-04-15T09:24:22;10.20;99.90
25983;DHT22;13773;48.868;10.730;2023-04-15T09:26:54;10.00;99.90
25983;DHT22;13773;48.868;10.730;2023-04-15T09:29:25;10.20;99.90
25983;DHT22;13773;48.868;10.730;2023-04-15T09:31:51;9.90;99.90
25983;DHT22;13773;48.868;10.730;2023-04-15T09:34:17;9.90;99.90
25983;DHT22;13773;48.868;10.730;2023-04-15T09:39:13;10.00;99.90
25983;DHT22;13773;48.868;10.730;2023-04-15T09:41:39;10.10;99.90
25983;DHT22;13773;48.868;10.730;2023-04-15T09:44:05;9.90;99.90
25983;DHT22;13773;48.868;10.730;2023-04-15T09:46:44;9.90;99.90
25983;DHT22;13773;48.868;10.730;2023-04-15T09:49:11;9.90;99.90
25983;DHT22;13773;48.868;10.730;2023-04-15T09:51:38;10.00;99.90
25983;DHT22;13773;48.868;10.730;2023-04-15T09:54:04;10.00;99.90
25983;DHT22;13773;48.868;10.730;2023-04-15T09:56:37;10.20;99.90
25983;DHT22;13773;48.868;10.730;2023-04-15T09:59:06;10.40;99.90
25983;DHT22;13773;48.868;10.730;2023-04-15T10:01:32;10.50;99.90
25983;DHT22;13773;48.868;10.730;2023-04-15T10:04:01;10.80;99.90
25983;DHT22;13773;48.868;10.730;2023-04-15T10:06:28;11.00;99.90
25983;DHT22;13773;48.868;10.730;2023-04-15T10:08:56;11.30;99.90
25983;DHT22;13773;48.868;10.730;2023-04-15T10:11:23;11.40;99.90
25983;DHT22;13773;48.868;10.730;2023-04-15T10:13:50;11.40;99.90
25983;DHT22;13773;48.868;10.730;2023-04-15T10:16:19;11.50;99.90
25983;DHT22;13773;48.868;10.730;2023-04-15T10:18:47;11.30;99.90
25983;DHT22;13773;48.868;10.730;2023-04-15T10:21:13;11.10;99.90
25983;DHT22;13773;48.868;10.730;2023-04-15T10:23:46;11.00;99.90
25983;DHT22;13773;48.868;10.730;2023-04-15T10:26:12;10.90;99.90
25983;DHT22;13773;48.868;10.730;2023-04-15T10:28:40;10.60;99.90
25983;DHT22;13773;48.868;10.730;2023-04-15T10:31:06;10.70;99.90
25983;DHT22;13773;48.868;10.730;2023-04-15T10:33:32;10.60;99.90
25983;DHT22;13773;48.868;10.730;2023-04-15T10:35:59;10.50;99.90
25983;DHT22;13773;48.868;10.730;2023-04-15T10:38:42;10.40;99.90
25983;DHT22;13773;48.868;10.730;2023-04-15T10:41:21;10.30;99.90
25983;DHT22;13773;48.868;10.730;2023-04-15T10:44:01;10.30;99.90
25983;DHT22;13773;48.868;10.730;2023-04-15T10:46:38;10.40;99.90
25983;DHT22;13773;48.868;10.730;2023-04-15T10:49:15;10.60;99.90
25983;DHT22;13773;48.868;10.730;2023-04-15T10:51:52;10.50;99.90
25983;DHT22;13773;48.868;10.730;2023-04-15T10:56:51;10.40;99.90
25983;DHT22;13773;48.868;10.730;2023-04-15T10:59:31;10.30;99.90
25983;DHT22;13773;48.868;10.730;2023-04-15T11:04:56;10.50;99.90
25983;DHT22;13773;48.868;10.730;2023-04-15T11:15:44;10.00;99.90
25983;DHT22;13773;48.868;10.730;2023-04-15T11:18:19;9.90;99.90
25983;DHT22;13773;48.868;10.730;2023-04-15T11:20:54;9.90;99.90
25983;DHT22;13773;48.868;10.730;2023-04-15T11:23:49;10.10;99.90
25983;DHT22;13773;48.868;10.730;2023-04-15T11:26:15;10.20;99.90
25983;DHT22;13773;48.868;10.730;2023-04-15T11:28:43;10.10;99.90
25983;DHT22;13773;48.868;10.730;2023-04-15T11:31:10;10.10;99.90
25983;DHT22;13773;48.868;10.730;2023-04-15T11:33:52;10.10;99.90
25983;DHT22;13773;48.868;10.730;2023-04-15T11:36:18;10.10;99.90
25983;DHT22;13773;48.868;10.730;2023-04-15T11:38:45;10.00;99.90
25983;DHT22;13773;48.868;10.730;2023-04-15T11:41:11;9.90;99.90
25983;DHT22;13773;48.868;10.730;2023-04-15T11:43:37;9.90;99.90
25983;DHT22;13773;48.868;10.730;2023-04-15T11:46:03;9.70;99.90
25983;DHT22;13773;48.868;10.730;2023-04-15T11:48:31;9.80;99.90
25983;DHT22;13773;48.868;10.730;2023-04-15T11:51:02;9.50;99.90
25983;DHT22;13773;48.868;10.730;2023-04-15T11:53:44;9.50;99.90
25983;DHT22;13773;48.868;10.730;2023-04-15T11:56:32;9.50;99.90
25983;DHT22;13773;48.868;10.730;2023-04-15T11:58:57;9.60;99.90
25983;DHT22;13773;48.868;10.730;2023-04-15T12:01:37;9.50;99.90
25983;DHT22;13773;48.868;10.730;2023-04-15T12:04:16;9.60;99.90
25983;DHT22;13773;48.868;10.730;2023-04-15T12:06:44;9.50;99.90
25983;DHT22;13773;48.868;10.730;2023-04-15T12:09:11;9.10;99.90
25983;DHT22;13773;48.868;10.730;2023-04-15T12:16:55;8.50;99.90
25983;DHT22;13773;48.868;10.730;2023-04-15T12:22:13;8.30;99.90
25983;DHT22;13773;48.868;10.730;2023-04-15T12:24:41;8.20;99.90
25983;DHT22;13773;48.868;10.730;2023-04-15T12:27:10;8.20;99.90
25983;DHT22;13773;48.868;10.730;2023-04-15T12:29:37;8.30;99.90
25983;DHT22;13773;48.868;10.730;2023-04-15T12:32:13;8.10;99.90
25983;DHT22;13773;48.868;10.730;2023-04-15T12:34:40;8.10;99.90
25983;DHT22;13773;48.868;10.730;2023-04-15T12:37:09;8.10;99.90
25983;DHT22;13773;48.868;10.730;2023-04-15T12:39:37;8.00;99.90
25983;DHT22;13773;48.868;10.730;2023-04-15T12:42:03;7.90;99.90
25983;DHT22;13773;48.868;10.730;2023-04-15T12:44:30;8.00;99.90
25983;DHT22;13773;48.868;10.730;2023-04-15T12:46:55;7.80;99.90
25983;DHT22;13773;48.868;10.730;2023-04-15T12:49:22;7.80;99.90
25983;DHT22;13773;48.868;10.730;2023-04-15T12:51:51;7.60;99.90
25983;DHT22;13773;48.868;10.730;2023-04-15T12:54:17;7.40;99.90
25983;DHT22;13773;48.868;10.730;2023-04-15T12:56:47;7.40;99.90
25983;DHT22;13773;48.868;10.730;2023-04-15T12:59:13;7.40;99.90
25983;DHT22;13773;48.868;10.730;2023-04-15T13:01:39;7.30;99.90
25983;DHT22;13773;48.868;10.730;2023-04-15T13:04:06;7.20;99.90
25983;DHT22;13773;48.868;10.730;2023-04-15T13:06:32;7.20;99.90
25983;DHT22;13773;48.868;10.730;2023-04-15T13:08:59;7.10;99.90
25983;DHT22;13773;48.868;10.730;2023-04-15T13:11:26;7.10;99.90
25983;DHT22;13773;48.868;10.730;2023-04-15T13:13:51;7.10;99.90
25983;DHT22;13773;48.868;10.730;2023-04-15T13:16:17;7.10;99.90
25983;DHT22;13773;48.868;10.730;2023-04-15T13:18:43;7.10;99.90
25983;DHT22;13773;48.868;10.730;2023-04-15T13:21:12;7.10;99.90
25983;DHT22;13773;48.868;10.730;2023-04-15T13:23:39;7.30;99.90
25983;DHT22;13773;48.868;10.730;2023-04-15T13:26:05;7.20;99.90
25983;DHT22;13773;48.868;10.730;2023-04-15T13:28:31;7.20;99.90
25983;DHT22;13773;48.868;10.730;2023-04-15T13:30:56;7.30;99.90
25983;DHT22;13773;48.868;10.730;2023-04-15T13:33:22;7.40;99.90
25983;DHT22;13773;48.868;10.730;2023-04-15T13:35:48;7.50;99.90
25983;DHT22;13773;48.868;10.730;2023-04-15T13:38:13;7.60;99.90
25983;DHT22;13773;48.868;10.730;2023-04-15T13:40:39;7.60;99.90
25983;DHT22;13773;48.868;10.730;2023-04-15T13:43:05;7.50;99.90
25983;DHT22;13773;48.868;10.730;2023-04-15T13:45:31;7.70;99.90
25983;DHT22;13773;48.868;10.730;2023-04-15T13:47:57;7.80;99.90
25983;DHT22;13773;48.868;10.730;2023-04-15T13:50:22;7.70;99.90
25983;DHT22;13773;48.868;10.730;2023-04-15T13:52:48;7.80;99.90
25983;DHT22;13773;48.868;10.730;2023-04-15T13:55:14;7.80;99.90
25983;DHT22;13773;48.868;10.730;2023-04-15T13:57:40;7.70;99.90
25983;DHT22;13773;48.868;10.730;2023-04-15T14:00:06;7.60;99.90
25983;DHT22;13773;48.868;10.730;2023-04-15T14:02:32;7.50;99.90
25983;DHT22;13773;48.868;10.730;2023-04-15T14:04:58;7.50;99.90
25983;DHT22;13773;48.868;10.730;2023-04-15T14:07:23;7.40;99.90
25983;DHT22;13773;48.868;10.730;2023-04-15T14:09:49;7.40;99.90
25983;DHT22;13773;48.868;10.730;2023-04-15T14:12:15;7.40;99.90
25983;DHT22;13773;48.868;10.730;2023-04-15T14:14:40;7.50;99.90
25983;DHT22;13773;48.868;10.730;2023-04-15T14:17:06;7.50;99.90
25983;DHT22;13773;48.868;10.730;2023-04-15T14:19:33;7.60;99.90
25983;DHT22;13773;48.868;10.730;2023-04-15T14:21:59;7.50;99.90
25983;DHT22;13773;48.868;10.730;2023-04-15T14:24:25;7.50;99.90
25983;DHT22;13773;48.868;10.730;2023-04-15T14:26:51;7.50;99.90
25983;DHT22;13773;48.868;10.730;2023-04-15T14:29:17;7.50;99.90
25983;DHT22;13773;48.868;10.730;2023-04-15T14:31:43;7.60;99.90
25983;DHT22;13773;48.868;10.730;2023-04-15T14:34:09;6.20;99.90
25983;DHT22;13773;48.868;10.730;2023-04-15T14:36:35;7.50;99.90
25983;DHT22;13773;48.868;10.730;2023-04-15T14:39:02;7.40;99.90
25983;DHT22;13773;48.868;10.730;2023-04-15T14:41:28;7.40;99.90
25983;DHT22;13773;48.868;10.730;2023-04-15T14:43:54;7.40;99.90
25983;DHT22;13773;48.868;10.730;2023-04-15T14:46:21;7.30;99.90
25983;DHT22;13773;48.868;10.730;2023-04-15T14:48:47;7.20;99.90
25983;DHT22;13773;48.868;10.730;2023-04-15T14:51:12;7.10;99.90
25983;DHT22;13773;48.868;10.730;2023-04-15T14:53:38;7.10;99.90
25983;DHT22;13773;48.868;10.730;2023-04-15T14:56:04;7.10;99.90
25983;DHT22;13773;48.868;10.730;2023-04-15T14:58:30;7.70;99.90
25983;DHT22;13773;48.868;10.730;2023-04-15T15:00:57;7.10;99.90
25983;DHT22;13773;48.868;10.730;2023-04-15T15:03:23;7.10;99.90
25983;DHT22;13773;48.868;10.730;2023-04-15T15:05:48;7.00;99.90
25983;DHT22;13773;48.868;10.730;2023-04-15T15:08:14;7.10;99.90
25983;DHT22;13773;48.868;10.730;2023-04-15T15:10:40;7.10;99.90
25983;DHT22;13773;48.868;10.730;2023-04-15T15:13:08;7.10;99.90
25983;DHT22;13773;48.868;10.730;2023-04-15T15:15:36;7.10;99.90
25983;DHT22;13773;48.868;10.730;2023-04-15T15:18:02;7.10;99.90
25983;DHT22;13773;48.868;10.730;2023-04-15T15:20:28;6.90;99.90
25983;DHT22;13773;48.868;10.730;2023-04-15T15:22:54;6.90;99.90
25983;DHT22;13773;48.868;10.730;2023-04-15T15:25:20;6.90;99.90
25983;DHT22;13773;48.868;10.730;2023-04-15T15:27:46;6.90;99.90
25983;DHT22;13773;48.868;10.730;2023-04-15T15:30:12;6.90;99.90
25983;DHT22;13773;48.868;10.730;2023-04-15T15:32:39;6.90;99.90
25983;DHT22;13773;48.868;10.730;2023-04-15T15:35:05;6.80;99.90
25983;DHT22;13773;48.868;10.730;2023-04-15T15:37:31;6.80;99.90
25983;DHT22;13773;48.868;10.730;2023-04-15T15:39:57;6.70;99.90
25983;DHT22;13773;48.868;10.730;2023-04-15T15:42:23;6.70;99.90
25983;DHT22;13773;48.868;10.730;2023-04-15T15:44:49;6.70;99.90
25983;DHT22;13773;48.868;10.730;2023-04-15T15:47:17;6.60;99.90
25983;DHT22;13773;48.868;10.730;2023-04-15T15:49:44;6.60;99.90